createdAt,value
2023-02-05T00:00:15.307Z,18.22
2023-02-05T00:03:36.986Z,18.25
2023-02-05T00:06:57.839Z,20.25
2023-02-05T00:10:18.775Z,20.12
2023-02-05T00:13:44.583Z,20.15
2023-02-05T00:17:05.362Z,20.75
2023-02-05T00:20:26.300Z,21.13
2023-02-05T00:23:47.271Z,22.49
2023-02-05T00:27:10.942Z,24.70
2023-02-05T00:30:34.737Z,18.69
2023-02-05T00:33:56.250Z,19.59
2023-02-05T00:37:16.932Z,19.01
2023-02-05T00:40:42.603Z,21.23
2023-02-05T00:44:03.321Z,21.40
2023-02-05T00:47:29.080Z,20.48
2023-02-05T00:50:52.799Z,18.95
2023-02-05T00:54:14.168Z,17.65
2023-02-05T00:57:37.998Z,18.29
2023-02-05T01:01:01.689Z,17.00
2023-02-05T01:04:25.177Z,16.67
2023-02-05T01:07:45.916Z,15.58
2023-02-05T01:11:12.171Z,13.16
2023-02-05T01:14:32.917Z,12.98
2023-02-05T01:17:53.773Z,12.42
2023-02-05T01:21:17.197Z,12.14
2023-02-05T01:24:38.326Z,10.86
2023-02-05T01:28:09.723Z,12.41
2023-02-05T01:31:31.665Z,13.58
2023-02-05T01:34:53.936Z,12.24
2023-02-05T01:38:19.168Z,11.96
2023-02-05T01:41:42.200Z,16.16
2023-02-05T01:45:52.918Z,20.75
2023-02-05T01:49:22.939Z,12.97
2023-02-05T01:52:44.475Z,11.25
2023-02-05T01:56:24.412Z,11.36
2023-02-05T01:59:48.369Z,12.02
2023-02-05T02:03:10.248Z,12.02
2023-02-05T02:06:37.490Z,12.90
2023-02-05T02:09:59.217Z,13.06
2023-02-05T02:13:28.310Z,13.68
2023-02-05T02:16:50.666Z,13.84
2023-02-05T02:20:18.237Z,17.71
2023-02-05T02:23:43.238Z,19.24
2023-02-05T02:27:24.449Z,20.18
2023-02-05T02:30:45.259Z,19.58
2023-02-05T02:34:02.494Z,17.82
2023-02-05T02:37:17.898Z,16.50
2023-02-05T02:40:33.020Z,15.54
2023-02-05T02:43:56.749Z,16.13
2023-02-05T02:47:17.010Z,16.34
2023-02-05T02:50:33.446Z,15.14
2023-02-05T02:53:52.385Z,16.48
2023-02-05T02:57:08.683Z,14.54
2023-02-05T03:00:23.411Z,15.03
2023-02-05T03:03:44.388Z,14.49
2023-02-05T03:07:11.723Z,14.83
2023-02-05T03:10:34.443Z,15.65
2023-02-05T03:13:41.679Z,16.27
2023-02-05T03:16:48.647Z,18.51
2023-02-05T03:20:06.528Z,19.82
2023-02-05T03:23:13.977Z,19.15
2023-02-05T03:26:31.766Z,19.35
2023-02-05T03:30:13.112Z,22.59
2023-02-05T03:33:39.237Z,22.57
2023-02-05T03:37:10.708Z,21.79
2023-02-05T03:40:35.100Z,23.63
2023-02-05T03:44:07.455Z,23.81
2023-02-05T03:47:30.303Z,23.37
2023-02-05T03:50:47.460Z,22.19
2023-02-05T03:54:12.569Z,29.52
2023-02-05T03:57:29.033Z,32.72
2023-02-05T04:00:38.728Z,33.79
2023-02-05T04:03:45.799Z,33.14
2023-02-05T04:06:56.443Z,33.96
2023-02-05T04:10:06.438Z,35.20
2023-02-05T04:13:14.046Z,37.08
2023-02-05T04:16:22.594Z,38.73
2023-02-05T04:19:28.576Z,44.34
2023-02-05T04:22:38.887Z,47.32
2023-02-05T04:25:47.415Z,59.76
2023-02-05T04:28:58.361Z,53.53
2023-02-05T04:32:04.840Z,43.91
2023-02-05T04:35:12.166Z,37.02
2023-02-05T04:38:18.440Z,36.74
2023-02-05T04:41:27.765Z,35.52
2023-02-05T04:44:33.781Z,35.72
2023-02-05T04:47:40.469Z,39.56
2023-02-05T04:50:46.790Z,43.24
2023-02-05T04:53:53.520Z,43.12
2023-02-05T04:57:02.102Z,44.09
2023-02-05T05:00:10.387Z,42.68
2023-02-05T05:03:16.300Z,42.96
2023-02-05T05:06:23.398Z,42.62
2023-02-05T05:09:29.393Z,43.64
2023-02-05T05:12:39.977Z,45.72
2023-02-05T05:15:45.918Z,52.50
2023-02-05T05:19:06.380Z,61.89
2023-02-05T05:22:15.716Z,66.43
2023-02-05T05:25:22.544Z,68.24
2023-02-05T05:28:38.548Z,61.21
2023-02-05T05:31:52.680Z,56.24
2023-02-05T05:34:59.569Z,63.57
2023-02-05T05:38:07.735Z,77.43
2023-02-05T05:41:36.633Z,79.85
2023-02-05T05:44:50.262Z,69.05
2023-02-05T05:47:56.214Z,60.48
2023-02-05T05:51:05.025Z,58.69
2023-02-05T05:54:25.821Z,62.33
2023-02-05T05:57:32.733Z,65.16
2023-02-05T06:00:44.332Z,68.67
2023-02-05T06:03:51.458Z,62.95
2023-02-05T06:06:57.541Z,64.79
2023-02-05T06:10:05.333Z,77.18
2023-02-05T06:13:11.371Z,72.12
2023-02-05T06:16:20.828Z,120.29
2023-02-05T06:19:27.300Z,161.41
2023-02-05T06:22:34.068Z,139.48
2023-02-05T06:25:40.321Z,86.06
2023-02-05T06:28:47.095Z,76.58
2023-02-05T06:31:55.661Z,85.43
2023-02-05T06:35:08.683Z,101.11
2023-02-05T06:38:16.227Z,114.49
2023-02-05T06:41:22.985Z,88.54
2023-02-05T06:44:32.938Z,82.76
2023-02-05T06:47:42.549Z,76.96
2023-02-05T06:50:49.037Z,71.17
2023-02-05T06:53:57.507Z,76.60
2023-02-05T06:57:24.044Z,72.86
2023-02-05T07:00:32.407Z,72.14
2023-02-05T07:03:42.579Z,62.18
2023-02-05T07:06:57.054Z,57.47
2023-02-05T07:10:16.657Z,59.85
2023-02-05T07:13:23.580Z,51.67
2023-02-05T07:16:29.576Z,42.91
2023-02-05T07:19:40.081Z,37.74
2023-02-05T07:22:47.695Z,35.68
2023-02-05T07:25:59.636Z,34.49
2023-02-05T07:29:14.962Z,34.95
2023-02-05T07:32:21.998Z,36.44
2023-02-05T07:35:30.710Z,49.90
2023-02-05T07:38:41.366Z,53.95
2023-02-05T07:41:50.342Z,53.37
2023-02-05T07:45:20.167Z,58.51
2023-02-05T07:48:26.269Z,48.87
2023-02-05T07:51:35.827Z,41.33
2023-02-05T07:54:41.964Z,39.27
2023-02-05T07:57:48.800Z,37.91
2023-02-05T08:00:54.830Z,40.87
2023-02-05T08:04:05.144Z,46.87
2023-02-05T08:07:17.251Z,42.16
2023-02-05T08:10:24.579Z,38.69
2023-02-05T08:13:33.210Z,37.20
2023-02-05T08:16:40.089Z,37.34
2023-02-05T08:19:46.055Z,35.71
2023-02-05T08:22:58.229Z,32.39
2023-02-05T08:26:04.183Z,34.51
2023-02-05T08:29:11.759Z,34.95
2023-02-05T08:32:17.641Z,54.48
2023-02-05T08:35:24.404Z,49.02
2023-02-05T08:38:32.921Z,67.62
2023-02-05T08:41:40.664Z,45.06
2023-02-05T08:44:48.563Z,53.64
2023-02-05T08:47:55.571Z,43.03
2023-02-05T08:51:04.949Z,51.64
2023-02-05T08:54:16.430Z,40.09
2023-02-05T08:57:32.682Z,25.66
2023-02-05T09:00:40.310Z,25.36
2023-02-05T09:03:57.097Z,17.67
2023-02-05T09:07:09.486Z,17.55
2023-02-05T09:10:22.596Z,17.68
2023-02-05T09:13:29.371Z,20.24
2023-02-05T09:16:35.695Z,18.72
2023-02-05T09:19:45.401Z,17.95
2023-02-05T09:22:54.322Z,16.95
2023-02-05T09:26:11.748Z,16.38
2023-02-05T09:29:17.642Z,16.78
2023-02-05T09:32:24.436Z,17.20
2023-02-05T09:35:34.105Z,16.80
2023-02-05T09:38:41.786Z,15.75
2023-02-05T09:42:03.148Z,15.19
2023-02-05T09:45:44.756Z,13.14
2023-02-05T09:49:09.444Z,17.46
2023-02-05T09:52:33.726Z,21.65
2023-02-05T09:55:47.030Z,16.93
2023-02-05T09:59:07.733Z,11.25
2023-02-05T10:02:32.757Z,11.57
2023-02-05T10:06:08.765Z,13.36
2023-02-05T10:09:42.854Z,11.76
2023-02-05T10:13:43.473Z,9.65
2023-02-05T10:17:17.765Z,10.12
2023-02-05T10:21:03.723Z,11.25
2023-02-05T10:24:44.267Z,12.61
2023-02-05T10:28:06.573Z,20.78
2023-02-05T10:31:30.679Z,33.98
2023-02-05T10:34:59.716Z,38.74
2023-02-05T10:38:20.155Z,24.38
2023-02-05T10:41:42.536Z,16.67
2023-02-05T10:44:53.612Z,13.81
2023-02-05T10:48:27.481Z,15.66
2023-02-05T10:51:44.751Z,20.28
2023-02-05T10:54:54.121Z,20.23
2023-02-05T10:58:06.737Z,17.04
2023-02-05T11:01:27.884Z,18.95
2023-02-05T11:04:45.775Z,16.51
2023-02-05T11:08:04.901Z,11.04
2023-02-05T11:11:28.282Z,11.78
2023-02-05T11:14:40.273Z,13.43
2023-02-05T11:17:48.508Z,17.65
2023-02-05T11:21:02.957Z,13.64
2023-02-05T11:24:29.445Z,16.46
2023-02-05T11:27:39.905Z,13.27
2023-02-05T11:30:53.453Z,16.25
2023-02-05T11:34:20.198Z,17.48
2023-02-05T11:37:26.341Z,12.35
2023-02-05T11:40:37.000Z,13.93
2023-02-05T11:43:53.761Z,18.53
2023-02-05T11:47:04.801Z,20.13
2023-02-05T11:50:27.990Z,20.25
2023-02-05T11:53:36.194Z,17.23
2023-02-05T11:56:45.177Z,14.89
2023-02-05T12:00:03.913Z,15.82
2023-02-05T12:03:31.047Z,19.64
2023-02-05T12:06:55.649Z,21.03
2023-02-05T12:10:21.949Z,27.03
2023-02-05T12:13:57.194Z,18.45
2023-02-05T12:17:30.385Z,21.42
2023-02-05T12:20:50.158Z,21.21
2023-02-05T12:24:38.559Z,23.43
2023-02-05T12:28:21.676Z,23.62
2023-02-05T12:31:59.787Z,23.81
2023-02-05T12:35:50.864Z,30.05
2023-02-05T12:39:15.468Z,36.27
2023-02-05T12:42:40.382Z,28.96
2023-02-05T12:46:09.740Z,31.18
2023-02-05T12:49:47.242Z,28.86
2023-02-05T12:53:28.080Z,27.85
2023-02-05T12:57:01.380Z,31.01
2023-02-05T13:00:23.129Z,38.03
2023-02-05T13:03:42.155Z,27.13
2023-02-05T13:07:01.249Z,23.55
2023-02-05T13:10:22.415Z,21.27
2023-02-05T13:13:39.767Z,21.75
2023-02-05T13:16:59.386Z,21.37
2023-02-05T13:20:10.693Z,19.65
2023-02-05T13:23:34.488Z,18.98
2023-02-05T13:26:59.960Z,16.42
2023-02-05T13:30:25.204Z,18.30
2023-02-05T13:33:31.814Z,20.83
2023-02-05T13:37:22.760Z,19.08
2023-02-05T13:41:28.117Z,22.60
2023-02-05T13:45:30.728Z,21.70
2023-02-05T13:49:22.346Z,18.88
2023-02-05T13:53:13.034Z,22.51
2023-02-05T13:57:09.268Z,19.99
2023-02-05T14:00:23.912Z,20.26
2023-02-05T14:03:38.463Z,17.44
2023-02-05T14:06:53.152Z,13.68
2023-02-05T14:10:07.878Z,14.99
2023-02-05T14:13:32.079Z,16.53
2023-02-05T14:16:39.573Z,14.57
2023-02-05T14:20:01.024Z,14.52
2023-02-05T14:23:55.519Z,14.09
2023-02-05T14:27:02.658Z,15.47
2023-02-05T14:30:48.555Z,15.99
2023-02-05T14:33:55.388Z,15.86
2023-02-05T14:37:08.788Z,17.56
2023-02-05T14:40:31.539Z,19.97
2023-02-05T14:43:49.052Z,16.86
2023-02-05T14:47:11.335Z,15.00
2023-02-05T14:50:29.003Z,16.31
2023-02-05T14:53:40.638Z,17.72
2023-02-05T14:57:04.766Z,17.31
2023-02-05T15:00:45.780Z,17.06
2023-02-05T15:03:57.426Z,18.38
2023-02-05T15:07:22.165Z,18.99
2023-02-05T15:10:40.848Z,18.76
2023-02-05T15:14:41.755Z,19.20
2023-02-05T15:17:55.599Z,18.64
2023-02-05T15:21:10.391Z,19.65
2023-02-05T15:24:29.776Z,22.04
2023-02-05T15:27:54.616Z,23.20
2023-02-05T15:31:22.251Z,25.84
2023-02-05T15:34:41.635Z,25.11
2023-02-05T15:37:57.748Z,28.85
2023-02-05T15:41:10.962Z,33.68
2023-02-05T15:44:29.648Z,47.91
2023-02-05T15:47:36.463Z,108.00
2023-02-05T15:50:52.489Z,141.83
2023-02-05T15:54:07.405Z,63.02
2023-02-05T15:57:28.049Z,49.74
2023-02-05T16:00:46.694Z,38.63
2023-02-05T16:03:52.764Z,34.54
2023-02-05T16:06:59.922Z,32.71
2023-02-05T16:10:25.679Z,30.75
2023-02-05T16:13:33.102Z,28.94
2023-02-05T16:16:46.430Z,27.50
2023-02-05T16:20:08.941Z,34.65
2023-02-05T16:23:30.687Z,34.75
2023-02-05T16:26:53.050Z,30.64
2023-02-05T16:30:12.448Z,31.58
2023-02-05T16:33:44.361Z,32.06
2023-02-05T16:36:53.383Z,29.53
2023-02-05T16:40:06.874Z,31.38
2023-02-05T16:43:34.485Z,33.65
2023-02-05T16:46:41.386Z,30.50
2023-02-05T16:49:49.975Z,30.20
2023-02-05T16:53:00.717Z,29.25
2023-02-05T16:56:24.949Z,27.68
2023-02-05T16:59:44.213Z,29.76
2023-02-05T17:02:50.526Z,40.01
2023-02-05T17:06:07.082Z,48.59
2023-02-05T17:09:36.772Z,55.16
2023-02-05T17:13:01.198Z,58.99
2023-02-05T17:16:31.123Z,50.35
2023-02-05T17:19:38.115Z,42.90
2023-02-05T17:23:11.490Z,38.65
2023-02-05T17:26:19.282Z,39.39
2023-02-05T17:29:26.481Z,51.71
2023-02-05T17:32:36.563Z,70.94
2023-02-05T17:35:42.554Z,57.44
2023-02-05T17:38:50.318Z,60.26
2023-02-05T17:42:08.648Z,61.29
2023-02-05T17:45:22.561Z,55.71
2023-02-05T17:48:31.123Z,43.44
2023-02-05T17:51:41.798Z,39.75
2023-02-05T17:54:48.361Z,38.87
2023-02-05T17:57:55.327Z,41.31
2023-02-05T18:01:01.375Z,47.17
2023-02-05T18:04:12.072Z,51.15
2023-02-05T18:07:32.548Z,59.14
2023-02-05T18:10:39.544Z,61.75
2023-02-05T18:13:47.650Z,70.74
2023-02-05T18:16:54.423Z,93.53
2023-02-05T18:20:04.939Z,81.00
2023-02-05T18:23:14.164Z,96.37
2023-02-05T18:26:26.082Z,95.79
2023-02-05T18:29:32.948Z,100.69
2023-02-05T18:32:39.094Z,88.94
2023-02-05T18:35:48.578Z,83.57
2023-02-05T18:38:54.906Z,81.78
2023-02-05T18:42:02.669Z,74.97
2023-02-05T18:45:09.976Z,79.44
2023-02-05T18:48:20.858Z,61.85
2023-02-05T18:51:29.939Z,57.27
2023-02-05T18:54:37.093Z,62.85
2023-02-05T18:57:42.984Z,61.98
2023-02-05T19:00:58.520Z,63.70
2023-02-05T19:04:18.833Z,61.91
2023-02-05T19:07:35.704Z,63.38
2023-02-05T19:10:46.144Z,52.17
2023-02-05T19:14:09.149Z,47.89
2023-02-05T19:17:15.035Z,40.87
2023-02-05T19:20:21.924Z,57.50
2023-02-05T19:23:32.401Z,51.03
2023-02-05T19:26:43.678Z,43.13
2023-02-05T19:29:49.655Z,46.80
2023-02-05T19:32:56.437Z,51.25
2023-02-05T19:36:04.283Z,42.09
2023-02-05T19:39:17.947Z,39.38
2023-02-05T19:42:27.475Z,39.27
2023-02-05T19:45:40.662Z,42.21
2023-02-05T19:48:50.382Z,45.39
2023-02-05T19:52:04.990Z,45.84
2023-02-05T19:55:13.833Z,45.97
2023-02-05T19:58:21.002Z,48.69
2023-02-05T20:01:47.026Z,46.45
2023-02-05T20:04:58.954Z,47.42
2023-02-05T20:08:06.929Z,49.07
2023-02-05T20:11:18.019Z,50.56
2023-02-05T20:14:27.660Z,52.07
2023-02-05T20:17:34.522Z,50.94
2023-02-05T20:20:47.686Z,51.60
2023-02-05T20:23:58.155Z,53.06
2023-02-05T20:27:07.002Z,49.79
2023-02-05T20:30:30.303Z,46.05
2023-02-05T20:33:38.681Z,44.71
2023-02-05T20:36:45.910Z,43.45
2023-02-05T20:39:52.720Z,40.67
2023-02-05T20:43:04.882Z,45.59
2023-02-05T20:46:14.104Z,49.64
2023-02-05T20:49:31.517Z,49.47
2023-02-05T20:52:38.427Z,51.83
2023-02-05T20:55:52.169Z,47.81
2023-02-05T20:59:07.332Z,46.69
2023-02-05T21:02:14.553Z,48.58
2023-02-05T21:05:20.798Z,51.26
2023-02-05T21:08:27.763Z,55.18
2023-02-05T21:11:35.085Z,52.79
2023-02-05T21:14:44.912Z,46.10
2023-02-05T21:17:51.345Z,44.33
2023-02-05T21:20:58.482Z,45.28
2023-02-05T21:24:08.891Z,43.90
2023-02-05T21:27:16.830Z,44.88
2023-02-05T21:30:25.664Z,46.88
2023-02-05T21:33:32.782Z,48.41
2023-02-05T21:36:38.945Z,48.94
2023-02-05T21:39:46.109Z,48.36
2023-02-05T21:42:52.284Z,44.88
2023-02-05T21:46:05.603Z,46.44
2023-02-05T21:49:13.369Z,51.45
2023-02-05T21:52:20.298Z,57.34
2023-02-05T21:55:27.064Z,56.51
2023-02-05T21:58:35.517Z,59.31
2023-02-05T22:01:46.131Z,64.85
2023-02-05T22:04:53.034Z,70.34
2023-02-05T22:07:58.951Z,70.85
2023-02-05T22:11:07.295Z,64.81
2023-02-05T22:14:14.623Z,63.39
2023-02-05T22:17:24.774Z,70.83
2023-02-05T22:20:30.754Z,71.85
2023-02-05T22:23:38.348Z,73.41
2023-02-05T22:26:44.445Z,74.90
2023-02-05T22:29:52.984Z,78.37
2023-02-05T22:33:01.696Z,83.54
2023-02-05T22:36:12.048Z,87.17
2023-02-05T22:39:18.086Z,91.33
2023-02-05T22:42:25.121Z,92.45
2023-02-05T22:45:34.390Z,90.89
2023-02-05T22:48:47.185Z,97.88
2023-02-05T22:51:56.009Z,103.80
2023-02-05T22:55:02.751Z,112.79
2023-02-05T22:58:10.162Z,124.77
2023-02-05T23:01:20.599Z,122.32
2023-02-05T23:04:29.137Z,170.96
2023-02-05T23:07:36.098Z,182.41
2023-02-05T23:10:42.166Z,153.81
2023-02-05T23:13:49.135Z,130.14
2023-02-05T23:16:56.843Z,119.41
2023-02-05T23:20:06.290Z,113.92
2023-02-05T23:23:12.369Z,117.45
2023-02-05T23:26:22.637Z,117.45
2023-02-05T23:29:28.527Z,106.86
2023-02-05T23:32:35.754Z,101.49
2023-02-05T23:35:44.483Z,98.62
2023-02-05T23:38:52.507Z,87.11
2023-02-05T23:41:58.303Z,96.37
2023-02-05T23:45:05.124Z,118.21
2023-02-05T23:48:11.107Z,119.01
2023-02-05T23:51:20.445Z,124.07
2023-02-05T23:54:27.435Z,120.65
2023-02-05T23:57:34.150Z,119.34
